Home > Products > Valid Products > TAF

000
FTUS44 KLIX 280012 RRA
TAFNEW
TAF
KNEW 280012Z 2800/2824 08015KT 6SM -TSRA OVC008CB
      TEMPO 2800/2803 3SM TSRA
     FM280300 09015KT 3SM TSRA BKN015CB OVC030
     FM280600 09015KT 3SM SHRA OVC008
     FM281400 06010KT P6SM VCTS OVC015CB
     FM281800 33008KT P6SM BKN025=



000
FTUS44 KLIX 280012 RRA
TAFNEW
TAF
KNEW 280012Z 2800/2824 08015KT 6SM -TSRA OVC008CB
      TEMPO 2800/2803 3SM TSRA
     FM280300 09015KT 3SM TSRA BKN015CB OVC030
     FM280600 09015KT 3SM SHRA OVC008
     FM281400 06010KT P6SM VCTS OVC015CB
     FM281800 33008KT P6SM BKN025=



000
FTUS44 KLIX 280012 RRA
TAFBTR
TAF
KBTR 280012Z 2800/2824 09010KT 6SM -TSRA SCT020 BKN060CB OVC090
      TEMPO 2800/2804 2SM +TSRA SCT008 OVC020CB
     FM280400 10008KT 3SM SHRA OVC007
     FM281200 07007KT P6SM VCTS OVC003CB
     FM281500 01007KT P6SM VCTS BKN008CB
     FM281800 32008KT P6SM BKN025=



000
FTUS44 KLIX 280012 RRA
TAFGPT
TAF
KGPT 280012Z 2800/2824 07007KT P6SM VCSH FEW030 OVC100
     FM280100 08011KT 6SM -TSRA SCT008 OVC035CB
      TEMPO 2801/2803 3SM TSRA BKN008CB
     FM280300 08012KT 4SM TSRA BKN008CB
     FM280600 09012KT 3SM SHRA OVC008
     FM281500 14008KT 4SM SHRA OVC008
     FM281800 20006KT P6SM BKN015=



000
FTUS44 KLIX 280012 RRA
TAFMCB
TAF
KMCB 280012Z 2800/2824 10007G15KT P6SM -RA FEW030 BKN090 BKN110
     FM280300 10008KT 3SM SHRA OVC025
      TEMPO 2804/2808 TSRA OVC010CB
     FM281200 08007KT P6SM VCTS OVC025CB
     FM281700 02004KT P6SM VCTS OVC015CB
     FM282200 34008KT P6SM VCTS BKN008CB=



000
FTUS44 KLIX 280012 RRA
TAFMSY
TAF
KMSY 280012Z 2800/2824 VRB05KT 6SM -TSRA BKN013CB OVC100
      TEMPO 2800/2803 3SM TSRA
     FM280300 09012KT 4SM TSRA BKN015CB
     FM280600 09012KT 3SM SHRA OVC008
     FM281200 10009KT P6SM VCTS BKN008CB
     FM281400 06008KT P6SM VCTS OVC015CB
     FM281800 32008KT P6SM BKN025=



000
FTUS44 KLIX 272204 AAB
TAFNEW
TAF AMD
KNEW 272204Z 2722/2818 06012KT P6SM SCT040 BKN100
     FM280500 10013KT 3SM -SHRA OVC015=



000
FTUS44 KLIX 272204 AAB
TAFNEW
TAF AMD
KNEW 272204Z 2722/2818 06012KT P6SM SCT040 BKN100
     FM280500 10013KT 3SM -SHRA OVC015=



000
FTUS44 KLIX 272204 AAC
TAFMSY
TAF AMD
KMSY 272204Z 2722/2818 07010KT P6SM SCT050 BKN120 OVC200
     FM280500 10012KT 6SM -SHRA OVC015=



000
FTUS44 KLIX 272203 AAA
TAFBTR
TAF AMD
KBTR 272203Z 2722/2818 09010G20KT P6SM SCT010 BKN090 OVC140
      TEMPO 2723/2801 VRB20G30KT 2SM TSRA BKN010CB OVC030
     FM280100 09008KT P6SM VCTS SCT015CB BKN050=



000
FTUS44 KLIX 272112 AAB
TAFGPT
TAF AMD
KGPT 272112Z 2721/2818 02010KT P6SM VCSH SCT040 BKN100 OVC200
     FM280000 08015KT 3SM -SHRA OVC015=



000
FTUS44 KLIX 272112 AAB
TAFGPT
TAF AMD
KGPT 272112Z 2721/2818 02010KT P6SM VCSH SCT040 BKN100 OVC200
     FM280000 08015KT 3SM -SHRA OVC015=



000
FTUS44 KLIX 272111 AAB
TAFMSY
TAF AMD
KMSY 272111Z 2721/2818 04012KT P6SM SCT050 BKN120 OVC200
     FM280500 10012KT 6SM -SHRA OVC015=



000
FTUS44 KLIX 272032 AAA
TAFNEW
TAF AMD
KNEW 272032Z 2721/2818 02012KT P6SM SCT040 BKN100
     FM280500 10013KT 3SM -SHRA OVC015=



000
FTUS44 KLIX 272032 AAA
TAFNEW
TAF AMD
KNEW 272032Z 2721/2818 02012KT P6SM SCT040 BKN100
     FM280500 10013KT 3SM -SHRA OVC015=



000
FTUS44 KLIX 272030 AAA
TAFGPT
TAF AMD
KGPT 272030Z 2721/2818 11015G25KT P6SM SCT040 BKN100 OVC200
      TEMPO 2721/2724 3SM -TSRA BKN020CB
     FM280000 08015KT 3SM -SHRA OVC015=



000
FTUS44 KLIX 272028 AAA
TAFMCB
TAF AMD
KMCB 272028Z 2720/2818 11010KT 6SM -RA SCT100 BKN120
      TEMPO 2720/2723 3SM TSRA SCT040CB
     FM272300 10007KT P6SM VCTS BKN015CB
     FM280000 09007KT 4SM -SHRA BKN010=



000
FTUS44 KLIX 272028 AAA
TAFMCB
TAF AMD
KMCB 272028Z 2720/2818 11010KT 6SM -RA SCT100 BKN120
      TEMPO 2720/2723 3SM TSRA SCT040CB
     FM272300 10007KT P6SM VCTS BKN015CB
     FM280000 09007KT 4SM -SHRA BKN010=



000
FTUS44 KLIX 272027 AAA
TAFMSY
TAF AMD
KMSY 272027Z 2720/2818 13010KT P6SM SCT050 BKN120 OVC200
     FM280500 10012KT 6SM -SHRA OVC015=



000
FTUS44 KLIX 272027 AAA
TAFMSY
TAF AMD
KMSY 272027Z 2720/2818 13010KT P6SM SCT050 BKN120 OVC200
     FM280500 10012KT 6SM -SHRA OVC015=



000
FTUS44 KLIX 271748
TAFNEW
TAF
KNEW 271748Z 2718/2818 02036G47KT 2SM TSRA SCT008 BKN045CB OVC080
     FM271900 05020G27KT 4SM -TSRA SCT040 OVC090CB
     FM272300 07015KT 3SM SHRA BKN008
     FM280000 06014KT 3SM -SHRA OVC015
     FM280500 10013KT 3SM -SHRA OVC015=



000
FTUS44 KLIX 271748
TAFNEW
TAF
KNEW 271748Z 2718/2818 02036G47KT 2SM TSRA SCT008 BKN045CB OVC080
     FM271900 05020G27KT 4SM -TSRA SCT040 OVC090CB
     FM272300 07015KT 3SM SHRA BKN008
     FM280000 06014KT 3SM -SHRA OVC015
     FM280500 10013KT 3SM -SHRA OVC015=



000
FTUS44 KLIX 271748
TAFBTR
TAF
KBTR 271748Z 2718/2818 06013KT P6SM VCTS SCT010 BKN090CB OVC140
      TEMPO 2719/2722 4SM TSRA
     FM280000 09008KT 4SM -SHRA OVC015=



000
FTUS44 KLIX 271748
TAFGPT
TAF
KGPT 271748Z 2718/2818 35016G25KT 3SM TSRA BR FEW027 BKN045CB
      OVC090
      TEMPO 2718/2720 VRB30G40KT 2SM +TSRA SCT015 OVC025CB
     FM272000 08012KT 6SM -TSRA BR SCT020 OVC040CB
     FM280000 08015KT 3SM -SHRA OVC015=



000
FTUS44 KLIX 271748
TAFMCB
TAF
KMCB 271748Z 2718/2818 07006KT P6SM SCT100 OVC140
     FM272000 11010KT 6SM -TSRA BKN090CB OVC130
      TEMPO 2720/2723 3SM TSRA
     FM272300 10007KT P6SM VCTS BKN015CB
     FM280000 09007KT 4SM -SHRA BKN010=



000
FTUS44 KLIX 271748
TAFMSY
TAF
KMSY 271748Z 2718/2818 06025G35KT 4SM TSRA BR FEW023 BKN080CB
      OVC110
     FM271900 06019G26KT 4SM TSRA BR FEW023 BKN080CB OVC110
     FM272300 08013KT 4SM SHRA SCT015 OVC090
     FM280500 10012KT 6SM -SHRA OVC015=



000
FTUS44 KLIX 271657 AAA
TAFGPT
TAF AMD
KGPT 271657Z 2717/2812 35015G23KT 3SM TSRA BR SCT015 BKN025CB
      OVC110
      TEMPO 2717/2720 VRB30G40KT 2SM +TSRA BKN015 OVC025CB
     FM272000 08012KT 6SM -TSRA BR BKN030CB
     FM280000 08015KT 3SM -SHRA OVC015=



000
FTUS44 KLIX 271652 AAB
TAFNEW
TAF AMD
KNEW 271652Z 2717/2812 36038G48KT 2SM TSRA BR SCT015 BKN030
      OVC070CB
     FM271715 01025G35KT 3SM TSRA BKN015 OVC030CB
      TEMPO 2718/2719 VRB35G45KT 3SM TSRA
     FM272300 07015KT 3SM SHRA BKN008
     FM280000 06014KT 3SM -SHRA OVC015
     FM280500 10013KT 3SM -SHRA OVC015=



000
FTUS44 KLIX 271652 AAB
TAFNEW
TAF AMD
KNEW 271652Z 2717/2812 36038G48KT 2SM TSRA BR SCT015 BKN030
      OVC070CB
     FM271715 01025G35KT 3SM TSRA BKN015 OVC030CB
      TEMPO 2718/2719 VRB35G45KT 3SM TSRA
     FM272300 07015KT 3SM SHRA BKN008
     FM280000 06014KT 3SM -SHRA OVC015
     FM280500 10013KT 3SM -SHRA OVC015=



000
FTUS44 KLIX 271629 AAC
TAFMSY
TAF AMD
KMSY 271629Z 2716/2812 03020G29KT 3SM SHRA BR SCT008 BKN023 OVC080
      TEMPO 2716/2718 02030G40KT TSRA BKN008 OVC023CB
     FM272300 06013KT 4SM SHRA OVC015
     FM280500 10012KT 6SM -SHRA OVC015=



000
FTUS44 KLIX 271421 AAA
TAFNEW
TAF AMD
KNEW 271421Z 2714/2812 08018G28KT P6SM BKN060
      TEMPO 2715/2717 VRB40G50KT 1/2SM +TSRA BKN008CB OVC015
     FM271700 11015KT 3SM SHRA BKN025
     FM272300 07015KT 3SM SHRA BKN008
     FM280000 06014KT 3SM -SHRA OVC015
     FM280500 10013KT 3SM -SHRA OVC015=



000
FTUS44 KLIX 271421 AAA
TAFNEW
TAF AMD
KNEW 271421Z 2714/2812 08018G28KT P6SM BKN060
      TEMPO 2715/2717 VRB40G50KT 1/2SM +TSRA BKN008CB OVC015
     FM271700 11015KT 3SM SHRA BKN025
     FM272300 07015KT 3SM SHRA BKN008
     FM280000 06014KT 3SM -SHRA OVC015
     FM280500 10013KT 3SM -SHRA OVC015=



000
FTUS44 KLIX 271421 AAA
TAFNEW
TAF AMD
KNEW 271421Z 2714/2812 08018G28KT P6SM BKN060
      TEMPO 2715/2717 VRB40G50KT 1/2SM +TSRA BKN008CB OVC015
     FM271700 11015KT 3SM SHRA BKN025
     FM272300 07015KT 3SM SHRA BKN008
     FM280000 06014KT 3SM -SHRA OVC015
     FM280500 10013KT 3SM -SHRA OVC015=



000
FTUS44 KLIX 271421 AAA
TAFNEW
TAF AMD
KNEW 271421Z 2714/2812 08018G28KT P6SM BKN060
      TEMPO 2715/2717 VRB40G50KT 1/2SM +TSRA BKN008CB OVC015
     FM271700 11015KT 3SM SHRA BKN025
     FM272300 07015KT 3SM SHRA BKN008
     FM280000 06014KT 3SM -SHRA OVC015
     FM280500 10013KT 3SM -SHRA OVC015=



000
FTUS44 KLIX 271417 AAB
TAFMCB
TAF AMD
KMCB 271417Z 2714/2812 09008KT 3SM -SHRA BKN025
      TEMPO 2714/2716 VRB35KT +TSRA OVC010CB
     FM272200 10007KT P6SM VCTS BKN015CB
     FM280000 09007KT 4SM -SHRA BKN010=



000
FTUS44 KLIX 271416 AAB
TAFMSY
TAF AMD
KMSY 271416Z 2714/2812 10010KT P6SM VCSH SCT015 BKN050 OVC250
      TEMPO 2715/2716 VRB40G50KT 1/2SM +TSRA BKN008CB OVC015
     FM271600 11014KT 4SM SHRA OVC025
     FM272300 06013KT 4SM SHRA OVC015
     FM280500 10012KT 6SM -SHRA OVC015=



000
FTUS44 KLIX 271245 AAA
TAFMCB
TAF AMD
KMCB 271245Z 2713/2812 06005KT P6SM SCT005 BKN100
      TEMPO 2713/2714 4SM BR BKN005
     FM271400 09008KT 3SM -SHRA BKN025
      TEMPO 2715/2719 VRB35KT +TSRA OVC010CB
     FM272200 10007KT P6SM VCTS BKN015CB
     FM280000 09007KT 4SM -SHRA BKN010=



000
FTUS44 KLIX 271245 AAA
TAFMCB
TAF AMD
KMCB 271245Z 2713/2812 06005KT P6SM SCT005 BKN100
      TEMPO 2713/2714 4SM BR BKN005
     FM271400 09008KT 3SM -SHRA BKN025
      TEMPO 2715/2719 VRB35KT +TSRA OVC010CB
     FM272200 10007KT P6SM VCTS BKN015CB
     FM280000 09007KT 4SM -SHRA BKN010=



000
FTUS44 KLIX 271243 AAB
TAFBTR
TAF AMD
KBTR 271243Z 2713/2812 05005KT 6SM BR SCT005 BKN050
      TEMPO 2713/2714 5SM BR BKN005
     FM271400 10009KT 3SM SHRA BKN025
      TEMPO 2714/2718 VRB40KT +TSRA OVC010CB
     FM280000 09008KT 4SM -SHRA OVC015=



000
FTUS44 KLIX 271243 AAB
TAFBTR
TAF AMD
KBTR 271243Z 2713/2812 05005KT 6SM BR SCT005 BKN050
      TEMPO 2713/2714 5SM BR BKN005
     FM271400 10009KT 3SM SHRA BKN025
      TEMPO 2714/2718 VRB40KT +TSRA OVC010CB
     FM280000 09008KT 4SM -SHRA OVC015=



000
FTUS44 KLIX 271218 AAA
TAFMSY
TAF AMD
KMSY 271218Z 2712/2812 07009KT 5SM BR BKN006
      TEMPO 2712/2714 6SM BR SCT006 BKN060
     FM271400 10010KT P6SM VCTS BKN015CB
     FM271700 11014KT 4SM SHRA OVC025
      TEMPO 2718/2722 VRB25G35KT +TSRA OVC010CB
     FM272300 06013KT 4SM SHRA OVC015
     FM280500 10012KT 6SM -SHRA OVC015=



000
FTUS44 KLIX 271218 AAA
TAFMSY
TAF AMD
KMSY 271218Z 2712/2812 07009KT 5SM BR BKN006
      TEMPO 2712/2714 6SM BR SCT006 BKN060
     FM271400 10010KT P6SM VCTS BKN015CB
     FM271700 11014KT 4SM SHRA OVC025
      TEMPO 2718/2722 VRB25G35KT +TSRA OVC010CB
     FM272300 06013KT 4SM SHRA OVC015
     FM280500 10012KT 6SM -SHRA OVC015=



000
FTUS44 KLIX 271216 AAA
TAFBTR
TAF AMD
KBTR 271216Z 2712/2812 05005KT 6SM BR SCT005 BKN050
      TEMPO 2712/2714 5SM BR BKN005
     FM271400 06006KT P6SM BKN020
     FM271500 10009KT 3SM SHRA BKN025
      TEMPO 2716/2719 VRB25G35KT +TSRA OVC010CB
     FM280000 09008KT 4SM -SHRA OVC015=



000
FTUS44 KLIX 271216 AAA
TAFBTR
TAF AMD
KBTR 271216Z 2712/2812 05005KT 6SM BR SCT005 BKN050
      TEMPO 2712/2714 5SM BR BKN005
     FM271400 06006KT P6SM BKN020
     FM271500 10009KT 3SM SHRA BKN025
      TEMPO 2716/2719 VRB25G35KT +TSRA OVC010CB
     FM280000 09008KT 4SM -SHRA OVC015=



000
FTUS44 KLIX 271132
TAFNEW
TAF
KNEW 271132Z 2712/2812 09004KT 4SM BR SCT003 BKN080
      TEMPO 2712/2714 BKN003
     FM271400 10011KT P6SM VCTS BKN015CB
     FM271700 11015KT 3SM SHRA BKN025
      TEMPO 2718/2722 VRB25G35KT +TSRA OVC010CB
     FM272300 07015KT 3SM SHRA BKN008
     FM280000 06014KT 3SM -SHRA OVC015
     FM280500 10013KT 3SM -SHRA OVC015=



000
FTUS44 KLIX 271132
TAFNEW
TAF
KNEW 271132Z 2712/2812 09004KT 4SM BR SCT003 BKN080
      TEMPO 2712/2714 BKN003
     FM271400 10011KT P6SM VCTS BKN015CB
     FM271700 11015KT 3SM SHRA BKN025
      TEMPO 2718/2722 VRB25G35KT +TSRA OVC010CB
     FM272300 07015KT 3SM SHRA BKN008
     FM280000 06014KT 3SM -SHRA OVC015
     FM280500 10013KT 3SM -SHRA OVC015=



000
FTUS44 KLIX 271132
TAFGPT
TAF
KGPT 271132Z 2712/2812 05008KT P6SM SCT003 BKN100
     FM271400 07009KT P6SM VCTS BKN020CB
     FM271800 10011KT P6SM VCTS BKN030CB
      TEMPO 2718/2722 VRB25G35KT +TSRA OVC010CB
     FM280000 08015KT 3SM -SHRA OVC015=



000
FTUS44 KLIX 271132
TAFBTR
TAF
KBTR 271132Z 2712/2812 05005KT 4SM BR OVC002
     FM271400 06006KT P6SM BKN020
     FM271500 10009KT 3SM SHRA BKN025
      TEMPO 2716/2719 VRB25G35KT +TSRA OVC010CB
     FM280000 09008KT 4SM -SHRA OVC015=



000
FTUS44 KLIX 271132
TAFMSY
TAF
KMSY 271132Z 2712/2812 09006KT P6SM SCT010 BKN070
      TEMPO 2712/2714 5SM BR
     FM271400 10010KT P6SM VCTS BKN015CB
     FM271700 11014KT 4SM SHRA OVC025
      TEMPO 2718/2722 VRB25G35KT +TSRA OVC010CB
     FM272300 06013KT 4SM SHRA OVC015
     FM280500 10012KT 6SM -SHRA OVC015=



000
FTUS44 KLIX 271132
TAFNEW
TAF
KNEW 271132Z 2712/2812 09004KT 4SM BR SCT003 BKN080
      TEMPO 2712/2714 BKN003
     FM271400 10011KT P6SM VCTS BKN015CB
     FM271700 11015KT 3SM SHRA BKN025
      TEMPO 2718/2722 VRB25G35KT +TSRA OVC010CB
     FM272300 07015KT 3SM SHRA BKN008
     FM280000 06014KT 3SM -SHRA OVC015
     FM280500 10013KT 3SM -SHRA OVC015=



000
FTUS44 KLIX 271132
TAFMCB
TAF
KMCB 271132Z 2712/2812 06005KT P6SM SCT005 BKN150
      TEMPO 2712/2715 4SM BR BKN005
     FM271600 09008KT P6SM BKN025
      TEMPO 2717/2721 VRB25G35KT +TSRA OVC010CB
     FM272200 10007KT P6SM VCTS BKN015CB
     FM280000 09007KT 4SM -SHRA BKN010=



000
FTUS44 KLIX 270802 AAA
TAFGPT
TAF AMD
KGPT 270802Z 2708/2806 00000KT 1SM BR VV002
      TEMPO 2708/2712 1/4SM FG VV001
     FM271200 09006KT 4SM BR VCTS BKN003CB
     FM271800 10011KT P6SM VCTS BKN045CB
      TEMPO 2720/2724 VRB25G35KT +TSRA OVC010CB
     FM280000 08015KT 3SM -SHRA OVC015=



000
FTUS44 KLIX 270802 AAA
TAFGPT
TAF AMD
KGPT 270802Z 2708/2806 00000KT 1SM BR VV002
      TEMPO 2708/2712 1/4SM FG VV001
     FM271200 09006KT 4SM BR VCTS BKN003CB
     FM271800 10011KT P6SM VCTS BKN045CB
      TEMPO 2720/2724 VRB25G35KT +TSRA OVC010CB
     FM280000 08015KT 3SM -SHRA OVC015=



000
FTUS44 KLIX 270524
TAFNEW
TAF
KNEW 270524Z 2706/2806 09004KT 5SM HZ SKC
     FM271400 10011KT P6SM VCTS BKN015CB
     FM271800 11012KT 3SM SHRA BKN025
      TEMPO 2719/2723 VRB25G35KT +TSRA OVC010CB
     FM272300 07011KT 3SM SHRA BKN008
     FM280000 06011KT 3SM -SHRA OVC015
     FM280500 10018KT 3SM -SHRA OVC015=



000
FTUS44 KLIX 270524
TAFBTR
TAF
KBTR 270524Z 2706/2806 08005KT P6SM FEW120
     FM271800 10009KT 3SM SHRA BKN025
      TEMPO 2718/2721 VRB25G35KT +TSRA OVC010CB
     FM280000 09008KT 4SM -SHRA OVC015=



000
FTUS44 KLIX 270524
TAFNEW
TAF
KNEW 270524Z 2706/2806 09004KT 5SM HZ SKC
     FM271400 10011KT P6SM VCTS BKN015CB
     FM271800 11012KT 3SM SHRA BKN025
      TEMPO 2719/2723 VRB25G35KT +TSRA OVC010CB
     FM272300 07011KT 3SM SHRA BKN008
     FM280000 06011KT 3SM -SHRA OVC015
     FM280500 10018KT 3SM -SHRA OVC015=



000
FTUS44 KLIX 270524
TAFMCB
TAF
KMCB 270524Z 2706/2806 00000KT P6SM SKC
      TEMPO 2719/2722 VRB25G35KT +TSRA OVC010CB
     FM272200 10007KT P6SM VCTS BKN015CB
     FM280000 09007KT 4SM -SHRA BKN010=



000
FTUS44 KLIX 270524
TAFGPT
TAF
KGPT 270524Z 2706/2806 00000KT 5SM BR SKC
     FM271000 09006KT P6SM VCTS BKN003CB
     FM271800 10011KT P6SM VCTS BKN045CB
      TEMPO 2720/2724 VRB25G35KT +TSRA OVC010CB
     FM280000 08015KT 3SM -SHRA OVC015=



000
FTUS44 KLIX 270524
TAFGPT
TAF
KGPT 270524Z 2706/2806 00000KT 5SM BR SKC
     FM271000 09006KT P6SM VCTS BKN003CB
     FM271800 10011KT P6SM VCTS BKN045CB
      TEMPO 2720/2724 VRB25G35KT +TSRA OVC010CB
     FM280000 08015KT 3SM -SHRA OVC015=



000
FTUS44 KLIX 270524
TAFMSY
TAF
KMSY 270524Z 2706/2806 00000KT P6SM FEW015 BKN250
     FM271400 10010KT P6SM VCTS BKN015CB
     FM271800 11012KT 4SM SHRA OVC025
      TEMPO 2719/2723 VRB25G35KT +TSRA OVC010CB
     FM272300 06011KT 4SM SHRA OVC015
     FM280500 10016KT 6SM -SHRA OVC015=



000
FTUS44 KLIX 270524
TAFNEW
TAF
KNEW 270524Z 2706/2806 09004KT 5SM HZ SKC
     FM271400 10011KT P6SM VCTS BKN015CB
     FM271800 11012KT 3SM SHRA BKN025
      TEMPO 2719/2723 VRB25G35KT +TSRA OVC010CB
     FM272300 07011KT 3SM SHRA BKN008
     FM280000 06011KT 3SM -SHRA OVC015
     FM280500 10018KT 3SM -SHRA OVC015=



000
FTUS44 KLIX 270524
TAFBTR
TAF
KBTR 270524Z 2706/2806 08005KT P6SM FEW120
     FM271800 10009KT 3SM SHRA BKN025
      TEMPO 2718/2721 VRB25G35KT +TSRA OVC010CB
     FM280000 09008KT 4SM -SHRA OVC015=



000
FTUS44 KLIX 270524
TAFMCB
TAF
KMCB 270524Z 2706/2806 00000KT P6SM SKC
      TEMPO 2719/2722 VRB25G35KT +TSRA OVC010CB
     FM272200 10007KT P6SM VCTS BKN015CB
     FM280000 09007KT 4SM -SHRA BKN010=



000
FTUS44 KLIX 270524
TAFMSY
TAF
KMSY 270524Z 2706/2806 00000KT P6SM FEW015 BKN250
     FM271400 10010KT P6SM VCTS BKN015CB
     FM271800 11012KT 4SM SHRA OVC025
      TEMPO 2719/2723 VRB25G35KT +TSRA OVC010CB
     FM272300 06011KT 4SM SHRA OVC015
     FM280500 10016KT 6SM -SHRA OVC015=



000
FTUS44 KLIX 270524
TAFNEW
TAF
KNEW 270524Z 2706/2806 09004KT 5SM HZ SKC
     FM271400 10011KT P6SM VCTS BKN015CB
     FM271800 11012KT 3SM SHRA BKN025
      TEMPO 2719/2723 VRB25G35KT +TSRA OVC010CB
     FM272300 07011KT 3SM SHRA BKN008
     FM280000 06011KT 3SM -SHRA OVC015
     FM280500 10018KT 3SM -SHRA OVC015=



000
FTUS44 KLIX 270010 AAA
TAFMSY
TAF AMD
KMSY 270010Z 2700/2724 06009KT P6SM VCTS SCT090CB SCT120 BKN250
     FM270200 16006KT P6SM BKN090
     FM271100 10007KT P6SM BKN015
     FM271200 09008KT P6SM VCTS BKN015CB
     FM271800 11012KT 4SM SHRA OVC025
      TEMPO 2719/2723 VRB25G35KT +TSRA OVC010CB
     FM272300 06011KT 4SM SHRA OVC015=



000
FTUS44 KLIX 270010 AAA
TAFMSY
TAF AMD
KMSY 270010Z 2700/2724 06009KT P6SM VCTS SCT090CB SCT120 BKN250
     FM270200 16006KT P6SM BKN090
     FM271100 10007KT P6SM BKN015
     FM271200 09008KT P6SM VCTS BKN015CB
     FM271800 11012KT 4SM SHRA OVC025
      TEMPO 2719/2723 VRB25G35KT +TSRA OVC010CB
     FM272300 06011KT 4SM SHRA OVC015=



000
FTUS44 KLIX 262336
TAFNEW
TAF
KNEW 262336Z 2700/2724 21007KT P6SM BKN250
     FM271200 10009KT P6SM VCTS BKN015CB
     FM271800 11012KT 3SM SHRA BKN025
      TEMPO 2719/2723 VRB25G35KT +TSRA OVC010CB
     FM272300 07011KT 3SM SHRA BKN008=



000
FTUS44 KLIX 262336
TAFNEW
TAF
KNEW 262336Z 2700/2724 21007KT P6SM BKN250
     FM271200 10009KT P6SM VCTS BKN015CB
     FM271800 11012KT 3SM SHRA BKN025
      TEMPO 2719/2723 VRB25G35KT +TSRA OVC010CB
     FM272300 07011KT 3SM SHRA BKN008=



000
FTUS44 KLIX 262336
TAFBTR
TAF
KBTR 262336Z 2700/2724 09007KT P6SM BKN250
     FM271200 06008KT P6SM VCTS BKN008CB
     FM271700 10009KT P6SM VCTS BKN025CB
     FM271800 10009KT 3SM SHRA BKN025
      TEMPO 2718/2721 VRB25G35KT +TSRA OVC010CB=



000
FTUS44 KLIX 262336
TAFMCB
TAF
KMCB 262336Z 2700/2724 01004KT P6SM SCT250
     FM270500 03004KT P6SM BKN250
     FM271200 06006KT P6SM VCTS BKN008CB
      TEMPO 2719/2722 VRB25G35KT +TSRA OVC010CB=



000
FTUS44 KLIX 262336
TAFMSY
TAF
KMSY 262336Z 2700/2724 10006KT P6SM BKN250
     FM270400 16006KT P6SM BKN090
     FM271100 10007KT P6SM BKN015
     FM271200 09008KT P6SM VCTS BKN015CB
     FM271800 11012KT 4SM SHRA OVC025
      TEMPO 2719/2723 VRB25G35KT +TSRA OVC010CB
     FM272300 06011KT 4SM SHRA OVC015=



000
FTUS44 KLIX 262336
TAFGPT
TAF
KGPT 262336Z 2700/2724 23007KT P6SM BKN250
     FM270500 16006KT P6SM BKN200
     FM271000 09006KT P6SM BKN008
     FM271200 07007KT P6SM VCTS BKN008CB
     FM271800 10011KT P6SM VCTS BKN025CB
      TEMPO 2720/2724 VRB25G35KT +TSRA OVC010CB=



000
FTUS44 KLIX 262000 AAB
TAFMSY
TAF AMD
KMSY 262000Z 2620/2718 VRB03KT P6SM SCT030 BKN120
     FM270900 11007KT P6SM BKN015
      TEMPO 2709/2713 5SM BR
     FM271500 07012KT P6SM BKN040=



000
FTUS44 KLIX 262000 AAB
TAFMSY
TAF AMD
KMSY 262000Z 2620/2718 VRB03KT P6SM SCT030 BKN120
     FM270900 11007KT P6SM BKN015
      TEMPO 2709/2713 5SM BR
     FM271500 07012KT P6SM BKN040=



000
FTUS44 KLIX 261848 AAA
TAFMSY
TAF AMD
KMSY 261848Z 2619/2718 VRB03KT P6SM SCT030 BKN120
      TEMPO 2619/2623 BKN010
     FM270900 11007KT P6SM BKN015
      TEMPO 2709/2713 5SM BR
     FM271500 07012KT P6SM BKN040=



000
FTUS44 KLIX 261848 AAA
TAFMSY
TAF AMD
KMSY 261848Z 2619/2718 VRB03KT P6SM SCT030 BKN120
      TEMPO 2619/2623 BKN010
     FM270900 11007KT P6SM BKN015
      TEMPO 2709/2713 5SM BR
     FM271500 07012KT P6SM BKN040=



000
FTUS44 KLIX 261759 AAA
TAFBTR
TAF AMD
KBTR 261759Z 2618/2718 00000KT P6SM BKN010
     FM262000 00000KT P6SM FEW140
     FM270900 08006KT P6SM BKN008
      TEMPO 2710/2713 3SM BR OVC003
     FM271500 09008KT P6SM BKN025=



000
FTUS44 KLIX 261759 AAA
TAFBTR
TAF AMD
KBTR 261759Z 2618/2718 00000KT P6SM BKN010
     FM262000 00000KT P6SM FEW140
     FM270900 08006KT P6SM BKN008
      TEMPO 2710/2713 3SM BR OVC003
     FM271500 09008KT P6SM BKN025=



000
FTUS44 KLIX 261723
TAFNEW
TAF
KNEW 261723Z 2618/2718 33005KT P6SM SCT030
     FM262000 25005KT P6SM SCT140
     FM270600 16004KT P6SM BKN090
     FM270900 12008KT P6SM BKN015
     FM271100 08011KT P6SM BKN015
     FM271500 07013KT P6SM BKN050=



000
FTUS44 KLIX 261723
TAFGPT
TAF
KGPT 261723Z 2618/2718 20005KT P6SM SCT130
     FM270900 13007KT P6SM BKN015
     FM271100 07011KT P6SM BKN015
     FM271500 10011KT P6SM BKN080=



000
FTUS44 KLIX 261723
TAFMSY
TAF
KMSY 261723Z 2618/2718 VRB03KT P6SM SCT030 BKN120
     FM270900 11007KT P6SM BKN015
      TEMPO 2709/2713 5SM BR
     FM271500 07012KT P6SM BKN040=



000
FTUS44 KLIX 261723
TAFMCB
TAF
KMCB 261723Z 2618/2718 VRB03KT P6SM FEW140
     FM270900 07004KT 5SM BR OVC005
      TEMPO 2709/2713 1/2SM FG OVC002
     FM271500 07008KT P6SM BKN030=



000
FTUS44 KLIX 261723
TAFNEW
TAF
KNEW 261723Z 2618/2718 33005KT P6SM SCT030
     FM262000 25005KT P6SM SCT140
     FM270600 16004KT P6SM BKN090
     FM270900 12008KT P6SM BKN015
     FM271100 08011KT P6SM BKN015
     FM271500 07013KT P6SM BKN050=



000
FTUS44 KLIX 261723
TAFBTR
TAF
KBTR 261723Z 2618/2718 00000KT P6SM FEW030
     FM262000 00000KT P6SM FEW140
     FM270900 08006KT P6SM BKN008
      TEMPO 2710/2713 3SM BR OVC003
     FM271500 09008KT P6SM BKN025=



000
FTUS44 KLIX 261723
TAFNEW
TAF
KNEW 261723Z 2618/2718 33005KT P6SM SCT030
     FM262000 25005KT P6SM SCT140
     FM270600 16004KT P6SM BKN090
     FM270900 12008KT P6SM BKN015
     FM271100 08011KT P6SM BKN015
     FM271500 07013KT P6SM BKN050=



000
FTUS44 KLIX 261723
TAFBTR
TAF
KBTR 261723Z 2618/2718 00000KT P6SM FEW030
     FM262000 00000KT P6SM FEW140
     FM270900 08006KT P6SM BKN008
      TEMPO 2710/2713 3SM BR OVC003
     FM271500 09008KT P6SM BKN025=



000
FTUS44 KLIX 261723
TAFNEW
TAF
KNEW 261723Z 2618/2718 33005KT P6SM SCT030
     FM262000 25005KT P6SM SCT140
     FM270600 16004KT P6SM BKN090
     FM270900 12008KT P6SM BKN015
     FM271100 08011KT P6SM BKN015
     FM271500 07013KT P6SM BKN050=



000
FTUS44 KLIX 261723
TAFGPT
TAF
KGPT 261723Z 2618/2718 20005KT P6SM SCT130
     FM270900 13007KT P6SM BKN015
     FM271100 07011KT P6SM BKN015
     FM271500 10011KT P6SM BKN080=



000
FTUS44 KLIX 261723
TAFMSY
TAF
KMSY 261723Z 2618/2718 VRB03KT P6SM SCT030 BKN120
     FM270900 11007KT P6SM BKN015
      TEMPO 2709/2713 5SM BR
     FM271500 07012KT P6SM BKN040=



000
FTUS44 KLIX 261723
TAFMCB
TAF
KMCB 261723Z 2618/2718 VRB03KT P6SM FEW140
     FM270900 07004KT 5SM BR OVC005
      TEMPO 2709/2713 1/2SM FG OVC002
     FM271500 07008KT P6SM BKN030=



000
FTUS44 KLIX 261703 AAC
TAFBTR
TAF AMD
KBTR 261703Z 2617/2712 VRB03KT P6SM OVC008
     FM261800 VRB05KT P6SM SCT025
     FM271000 22005KT P6SM OVC080=



000
FTUS44 KLIX 261703 AAC
TAFBTR
TAF AMD
KBTR 261703Z 2617/2712 VRB03KT P6SM OVC008
     FM261800 VRB05KT P6SM SCT025
     FM271000 22005KT P6SM OVC080=



000
FTUS44 KLIX 261502 AAE
TAFMSY
TAF AMD
KMSY 261502Z 2615/2712 00000KT 5SM BR BKN005
     FM261600 VRB04KT P6SM SCT030
     FM271000 00000KT 4SM BR SCT005=



000
FTUS44 KLIX 261502 AAB
TAFBTR
TAF AMD
KBTR 261502Z 2615/2712 VRB03KT 5SM BR BKN005
     FM261600 VRB03KT P6SM SCT120
     FM271000 22005KT P6SM OVC080=



000
FTUS44 KLIX 261409 AAA
TAFNEW
TAF AMD
KNEW 261409Z 2614/2712 28005KT P6SM OVC010
     FM261500 24004KT P6SM SCT030
     FM271000 00000KT P6SM SCT090=



000
FTUS44 KLIX 261409 AAA
TAFNEW
TAF AMD
KNEW 261409Z 2614/2712 28005KT P6SM OVC010
     FM261500 24004KT P6SM SCT030
     FM271000 00000KT P6SM SCT090=



000
FTUS44 KLIX 261407 AAB
TAFGPT
TAF AMD
KGPT 261407Z 2614/2712 26004KT 3SM BR OVC003
     FM261500 20003KT P6SM SCT020 SCT080
     FM271000 00000KT 4SM BR SCT005=



000
FTUS44 KLIX 261407 AAB
TAFMCB
TAF AMD
KMCB 261407Z 2614/2712 00000KT 4SM BR OVC004
     FM261500 VRB03KT P6SM SCT120
     FM271000 00000KT P6SM BKN090=



000
FTUS44 KLIX 261406 AAD
TAFMSY
TAF AMD
KMSY 261406Z 2614/2712 00000KT 2SM BR OVC003
     FM261500 VRB04KT P6SM SCT030
     FM271000 00000KT 4SM BR SCT005=



000
FTUS44 KLIX 261321 AAA
TAFBTR
TAF AMD
KBTR 261321Z 2613/2712 00000KT 1/2SM FG OVC002
      TEMPO 2613/2615 2SM BR BKN009
     FM261500 VRB03KT P6SM SCT120
     FM271000 22005KT P6SM OVC080=



000
FTUS44 KLIX 261303 AAA
TAFMCB
TAF AMD
KMCB 261303Z 2613/2712 00000KT 1/4SM FG VV002
     FM261430 VRB03KT 5SM BR SCT010
     FM261500 VRB03KT P6SM SCT120
     FM271000 00000KT P6SM BKN090=



000
FTUS44 KLIX 261303 AAA
TAFMCB
TAF AMD
KMCB 261303Z 2613/2712 00000KT 1/4SM FG VV002
     FM261430 VRB03KT 5SM BR SCT010
     FM261500 VRB03KT P6SM SCT120
     FM271000 00000KT P6SM BKN090=



000
FTUS44 KLIX 261302 AAC
TAFMSY
TAF AMD
KMSY 261302Z 2613/2712 00000KT 1/4SM FG OVC002
     FM261430 24004KT P6SM SCT250
     FM271000 00000KT 4SM BR SCT005=



000
FTUS44 KLIX 261302 AAC
TAFMSY
TAF AMD
KMSY 261302Z 2613/2712 00000KT 1/4SM FG OVC002
     FM261430 24004KT P6SM SCT250
     FM271000 00000KT 4SM BR SCT005=



000
FTUS44 KLIX 261247 AAA
TAFGPT
TAF AMD
KGPT 261247Z 2613/2712 26004KT 1 1/2SM BR BKN003
     FM261400 20003KT P6SM SCT080
     FM271000 00000KT 4SM BR SCT005=



000
FTUS44 KLIX 261247 AAA
TAFGPT
TAF AMD
KGPT 261247Z 2613/2712 26004KT 1 1/2SM BR BKN003
     FM261400 20003KT P6SM SCT080
     FM271000 00000KT 4SM BR SCT005=



000
FTUS44 KLIX 261202 AAB
TAFMSY
TAF AMD
KMSY 261202Z 2612/2712 00000KT 1SM BR OVC002
      TEMPO 2612/2613 1/4SM FG
     FM261400 24004KT P6SM SCT250
     FM271000 00000KT 4SM BR SCT005=



000
FTUS44 KLIX 261202 AAB
TAFMSY
TAF AMD
KMSY 261202Z 2612/2712 00000KT 1SM BR OVC002
      TEMPO 2612/2613 1/4SM FG
     FM261400 24004KT P6SM SCT250
     FM271000 00000KT 4SM BR SCT005=



000
FTUS44 KLIX 261145 AAA
TAFMSY
TAF AMD
KMSY 261145Z 2612/2712 00000KT 1SM BR OVC002
     FM261300 24004KT P6SM SCT250
     FM271000 00000KT 4SM BR SCT005=



000
FTUS44 KLIX 261128
TAFNEW
TAF
KNEW 261128Z 2612/2712 32006KT P6SM OVC008
     FM261300 24004KT P6SM SCT250
     FM271000 00000KT P6SM SCT090=



000
FTUS44 KLIX 261128
TAFBTR
TAF
KBTR 261128Z 2612/2712 24003KT 1/4SM FG VV002
      TEMPO 2612/2613 1SM BR OVC005
     FM261300 VRB03KT 5SM BR SCT010
     FM261500 VRB03KT P6SM SCT120
     FM271000 22005KT P6SM OVC080=



000
FTUS44 KLIX 261128
TAFMCB
TAF
KMCB 261128Z 2612/2712 00000KT 1/4SM FG VV002
      TEMPO 2612/2613 1SM BR OVC005
     FM261300 VRB03KT 5SM BR SCT010
     FM261500 VRB03KT P6SM SCT120
     FM271000 00000KT P6SM BKN090=



000
FTUS44 KLIX 261128
TAFNEW
TAF
KNEW 261128Z 2612/2712 32006KT P6SM OVC008
     FM261300 24004KT P6SM SCT250
     FM271000 00000KT P6SM SCT090=



000
FTUS44 KLIX 261128
TAFGPT
TAF
KGPT 261128Z 2612/2712 00000KT P6SM FEW080
     FM261300 24004KT P6SM SCT250
     FM271000 00000KT 4SM BR SCT005=



000
FTUS44 KLIX 261128
TAFGPT
TAF
KGPT 261128Z 2612/2712 00000KT P6SM FEW080
     FM261300 24004KT P6SM SCT250
     FM271000 00000KT 4SM BR SCT005=



000
FTUS44 KLIX 261128
TAFMSY
TAF
KMSY 261128Z 2612/2712 00000KT 6SM BR SCT005 BKN009 OVC070
     FM261300 24004KT P6SM SCT250
     FM271000 00000KT 4SM BR SCT005=



000
FTUS44 KLIX 261128
TAFMSY
TAF
KMSY 261128Z 2612/2712 00000KT 6SM BR SCT005 BKN009 OVC070
     FM261300 24004KT P6SM SCT250
     FM271000 00000KT 4SM BR SCT005=



000
FTUS44 KLIX 261128
TAFBTR
TAF
KBTR 261128Z 2612/2712 24003KT 1/4SM FG VV002
      TEMPO 2612/2613 1SM BR OVC005
     FM261300 VRB03KT 5SM BR SCT010
     FM261500 VRB03KT P6SM SCT120
     FM271000 22005KT P6SM OVC080=



000
FTUS44 KLIX 261128
TAFNEW
TAF
KNEW 261128Z 2612/2712 32006KT P6SM OVC008
     FM261300 24004KT P6SM SCT250
     FM271000 00000KT P6SM SCT090=



000
FTUS44 KLIX 261128
TAFMCB
TAF
KMCB 261128Z 2612/2712 00000KT 1/4SM FG VV002
      TEMPO 2612/2613 1SM BR OVC005
     FM261300 VRB03KT 5SM BR SCT010
     FM261500 VRB03KT P6SM SCT120
     FM271000 00000KT P6SM BKN090=



000
FTUS44 KLIX 261009 AAA
TAFBTR
TAF AMD
KBTR 261009Z 2610/2706 00000KT 1/2SM FG VV004
      TEMPO 2610/2613 1/4SM FG VV001
     FM261300 VRB03KT 3SM BR SCT010
     FM261500 VRB03KT P6SM SCT120
     FM262300 22005KT P6SM BKN130=



000
FTUS44 KLIX 260620 AAA
TAFMCB
TAF AMD
KMCB 260620Z 2606/2706 00000KT 1SM BR VV006
      TEMPO 2607/2611 1/4SM FG VV001
     FM261300 24004KT 3SM BR FEW003
     FM261500 25004KT P6SM FEW250
     FM262200 29005KT P6SM SKC=



000
FTUS44 KLIX 260620 AAA
TAFMCB
TAF AMD
KMCB 260620Z 2606/2706 00000KT 1SM BR VV006
      TEMPO 2607/2611 1/4SM FG VV001
     FM261300 24004KT 3SM BR FEW003
     FM261500 25004KT P6SM FEW250
     FM262200 29005KT P6SM SKC=



000
FTUS44 KLIX 260520
TAFNEW
TAF
KNEW 260520Z 2606/2706 25006KT P6SM SKC
     FM261000 25004KT 4SM BR SCT008
     FM261500 25005KT P6SM SCT250=



000
FTUS44 KLIX 260520
TAFGPT
TAF
KGPT 260520Z 2606/2706 00000KT P6SM SKC
     FM261100 VRB03KT 3SM BR SCT005
     FM261500 25005KT P6SM SCT250=



000
FTUS44 KLIX 260520
TAFGPT
TAF
KGPT 260520Z 2606/2706 00000KT P6SM SKC
     FM261100 VRB03KT 3SM BR SCT005
     FM261500 25005KT P6SM SCT250=



000
FTUS44 KLIX 260520
TAFBTR
TAF
KBTR 260520Z 2606/2706 26004KT P6SM SKC
     FM260900 VRB03KT 3SM BR SCT003
     FM261500 VRB03KT P6SM SCT250
     FM262300 22005KT P6SM BKN130=



000
FTUS44 KLIX 260520
TAFNEW
TAF
KNEW 260520Z 2606/2706 25006KT P6SM SKC
     FM261000 25004KT 4SM BR SCT008
     FM261500 25005KT P6SM SCT250=



000
FTUS44 KLIX 260520
TAFNEW
TAF
KNEW 260520Z 2606/2706 25006KT P6SM SKC
     FM261000 25004KT 4SM BR SCT008
     FM261500 25005KT P6SM SCT250=



000
FTUS44 KLIX 260520
TAFMSY
TAF
KMSY 260520Z 2606/2706 22004KT P6SM FEW250
     FM261000 25005KT 3SM BR SCT007
     FM261500 24004KT P6SM SCT250
     FM262300 22007KT P6SM BKN250=



000
FTUS44 KLIX 260520
TAFMCB
TAF
KMCB 260520Z 2606/2706 00000KT 1 1/2SM BR SKC
     FM261000 24004KT 3SM BR FEW003
     FM261500 25004KT P6SM FEW250
     FM262200 29005KT P6SM SKC=



000
FTUS44 KLIX 252326
TAFMCB
TAF
KMCB 252326Z 2600/2624 22007KT P6SM SCT250
     FM261000 24004KT 3SM BR FEW003
     FM261500 25004KT P6SM FEW250
     FM262200 29005KT P6SM SKC=



000
FTUS44 KLIX 252326
TAFGPT
TAF
KGPT 252326Z 2600/2624 25010G15KT P6SM BKN250
     FM260100 22006KT P6SM SCT250
     FM261100 VRB03KT 3SM BR SCT005
     FM261500 25005KT P6SM SCT250=



000
FTUS44 KLIX 252326
TAFNEW
TAF
KNEW 252326Z 2600/2624 24009KT P6SM SCT130
     FM261000 25004KT 4SM BR SCT008
     FM261500 25005KT P6SM SCT250=



000
FTUS44 KLIX 252326
TAFMSY
TAF
KMSY 252326Z 2600/2624 21007KT P6SM SCT110
     FM261000 25005KT 3SM BR SCT007
     FM261500 24004KT P6SM SCT250
     FM262300 22007KT P6SM BKN250=



000
FTUS44 KLIX 252326
TAFMCB
TAF
KMCB 252326Z 2600/2624 22007KT P6SM SCT250
     FM261000 24004KT 3SM BR FEW003
     FM261500 25004KT P6SM FEW250
     FM262200 29005KT P6SM SKC=



000
FTUS44 KLIX 252326
TAFMSY
TAF
KMSY 252326Z 2600/2624 21007KT P6SM SCT110
     FM261000 25005KT 3SM BR SCT007
     FM261500 24004KT P6SM SCT250
     FM262300 22007KT P6SM BKN250=



000
FTUS44 KLIX 252326
TAFNEW
TAF
KNEW 252326Z 2600/2624 24009KT P6SM SCT130
     FM261000 25004KT 4SM BR SCT008
     FM261500 25005KT P6SM SCT250=



000
FTUS44 KLIX 252326
TAFGPT
TAF
KGPT 252326Z 2600/2624 25010G15KT P6SM BKN250
     FM260100 22006KT P6SM SCT250
     FM261100 VRB03KT 3SM BR SCT005
     FM261500 25005KT P6SM SCT250=



000
FTUS44 KLIX 252326
TAFNEW
TAF
KNEW 252326Z 2600/2624 24009KT P6SM SCT130
     FM261000 25004KT 4SM BR SCT008
     FM261500 25005KT P6SM SCT250=



000
FTUS44 KLIX 252326
TAFBTR
TAF
KBTR 252326Z 2600/2624 21007KT P6SM SCT250
     FM260900 VRB03KT 3SM BR SCT003
     FM261500 VRB03KT P6SM SCT250
     FM262300 22005KT P6SM BKN130=



000
FTUS44 KLIX 252326
TAFBTR
TAF
KBTR 252326Z 2600/2624 21007KT P6SM SCT250
     FM260900 VRB03KT 3SM BR SCT003
     FM261500 VRB03KT P6SM SCT250
     FM262300 22005KT P6SM BKN130=



000
FTUS44 KLIX 252326
TAFNEW
TAF
KNEW 252326Z 2600/2624 24009KT P6SM SCT130
     FM261000 25004KT 4SM BR SCT008
     FM261500 25005KT P6SM SCT250=



000
FTUS44 KLIX 252133 AAB
TAFBTR
TAF AMD
KBTR 252133Z 2522/2618 15006KT P6SM FEW120
     FM260000 23004KT P6SM SCT250
     FM260800 VRB03KT 5SM BR SCT005 BKN250
     FM261500 VRB03KT P6SM SCT250=



000
FTUS44 KLIX 252131 AAA
TAFGPT
TAF AMD
KGPT 252131Z 2522/2618 00000KT 5SM -RA BR BKN110
     FM260000 21009KT P6SM BKN250
     FM260900 24007KT 5SM BR BKN015
     FM261500 26005KT P6SM SCT020=



000
FTUS44 KLIX 251956 AAA
TAFMSY
TAF AMD
KMSY 251956Z 2520/2618 33008KT P6SM VCTS SCT020CB BKN090
     FM260000 23010KT P6SM BKN250
     FM260700 24006KT P6SM BKN130
     FM261000 24006KT P6SM BKN015
     FM261500 24006KT P6SM SCT020=



000
FTUS44 KLIX 251956 AAA
TAFMSY
TAF AMD
KMSY 251956Z 2520/2618 33008KT P6SM VCTS SCT020CB BKN090
     FM260000 23010KT P6SM BKN250
     FM260700 24006KT P6SM BKN130
     FM261000 24006KT P6SM BKN015
     FM261500 24006KT P6SM SCT020=



000
FTUS44 KLIX 251906 AAA
TAFMCB
TAF AMD
KMCB 251906Z 2519/2618 18010KT P6SM SCT020 BKN120
     FM260100 23004KT P6SM SCT250
     FM260900 23004KT 5SM BR BKN010
     FM261400 VRB03KT P6SM SCT020=



000
FTUS44 KLIX 251905 AAA
TAFBTR
TAF AMD
KBTR 251905Z 2519/2618 13008KT P6SM -RA SCT025 OVC090
     FM260000 23004KT P6SM SCT250
     FM260800 VRB03KT 5SM BR SCT005 BKN250
     FM261500 VRB03KT P6SM SCT250=



000
FTUS44 KLIX 251905 AAA
TAFBTR
TAF AMD
KBTR 251905Z 2519/2618 13008KT P6SM -RA SCT025 OVC090
     FM260000 23004KT P6SM SCT250
     FM260800 VRB03KT 5SM BR SCT005 BKN250
     FM261500 VRB03KT P6SM SCT250=



000
FTUS44 KLIX 251724
TAFMSY
TAF
KMSY 251724Z 2518/2618 22008KT P6SM VCTS BKN020CB BKN090
      TEMPO 2518/2521 VRB20G30KT 1SM TSRA OVC008CB
     FM260000 23010KT P6SM BKN250
     FM260700 24006KT P6SM BKN130
     FM261000 24006KT P6SM BKN015
     FM261500 24006KT P6SM SCT020=



000
FTUS44 KLIX 251724
TAFBTR
TAF
KBTR 251724Z 2518/2618 20005KT P6SM VCTS SCT015CB BKN100
      TEMPO 2518/2520 VRB20G30KT 1SM TSRA BKN006CB OVC015
     FM260000 23004KT P6SM SCT250
     FM260800 VRB03KT 5SM BR SCT005 BKN250
     FM261500 VRB03KT P6SM SCT250=



000
FTUS44 KLIX 251724
TAFMCB
TAF
KMCB 251724Z 2518/2618 21008KT P6SM VCTS SCT020 BKN120CB
      TEMPO 2518/2520 VRB20G30KT 2SM TSRA OVC020CB
     FM260100 23004KT P6SM SCT250
     FM260900 23004KT 5SM BR BKN010
     FM261400 VRB03KT P6SM SCT020=



000
FTUS44 KLIX 251724
TAFBTR
TAF
KBTR 251724Z 2518/2618 20005KT P6SM VCTS SCT015CB BKN100
      TEMPO 2518/2520 VRB20G30KT 1SM TSRA BKN006CB OVC015
     FM260000 23004KT P6SM SCT250
     FM260800 VRB03KT 5SM BR SCT005 BKN250
     FM261500 VRB03KT P6SM SCT250=



000
FTUS44 KLIX 251724
TAFNEW
TAF
KNEW 251724Z 2518/2618 22010KT P6SM VCTS SCT020CB BKN090
      TEMPO 2518/2521 VRB20G30KT 1SM TSRA OVC015CB
     FM260000 23011KT P6SM BKN250
     FM260700 24007KT P6SM BKN130
     FM260900 24006KT P6SM BKN020
     FM261500 23005KT P6SM SCT020=



000
FTUS44 KLIX 251724
TAFGPT
TAF
KGPT 251724Z 2518/2618 22012KT P6SM BKN020
      TEMPO 2518/2522 VRB20G30KT 1SM TSRA OVC012CB
     FM260000 21009KT P6SM BKN250
     FM260900 24007KT 5SM BR BKN015
     FM261500 26005KT P6SM SCT020=



000
FTUS44 KLIX 251724
TAFNEW
TAF
KNEW 251724Z 2518/2618 22010KT P6SM VCTS SCT020CB BKN090
      TEMPO 2518/2521 VRB20G30KT 1SM TSRA OVC015CB
     FM260000 23011KT P6SM BKN250
     FM260700 24007KT P6SM BKN130
     FM260900 24006KT P6SM BKN020
     FM261500 23005KT P6SM SCT020=



000
FTUS44 KLIX 251724
TAFMCB
TAF
KMCB 251724Z 2518/2618 21008KT P6SM VCTS SCT020 BKN120CB
      TEMPO 2518/2520 VRB20G30KT 2SM TSRA OVC020CB
     FM260100 23004KT P6SM SCT250
     FM260900 23004KT 5SM BR BKN010
     FM261400 VRB03KT P6SM SCT020=



000
FTUS44 KLIX 251724
TAFMSY
TAF
KMSY 251724Z 2518/2618 22008KT P6SM VCTS BKN020CB BKN090
      TEMPO 2518/2521 VRB20G30KT 1SM TSRA OVC008CB
     FM260000 23010KT P6SM BKN250
     FM260700 24006KT P6SM BKN130
     FM261000 24006KT P6SM BKN015
     FM261500 24006KT P6SM SCT020=



000
FTUS44 KLIX 251724
TAFNEW
TAF
KNEW 251724Z 2518/2618 22010KT P6SM VCTS SCT020CB BKN090
      TEMPO 2518/2521 VRB20G30KT 1SM TSRA OVC015CB
     FM260000 23011KT P6SM BKN250
     FM260700 24007KT P6SM BKN130
     FM260900 24006KT P6SM BKN020
     FM261500 23005KT P6SM SCT020=



000
FTUS44 KLIX 251724
TAFGPT
TAF
KGPT 251724Z 2518/2618 22012KT P6SM BKN020
      TEMPO 2518/2522 VRB20G30KT 1SM TSRA OVC012CB
     FM260000 21009KT P6SM BKN250
     FM260900 24007KT 5SM BR BKN015
     FM261500 26005KT P6SM SCT020=



000
FTUS44 KLIX 251616 AAD
TAFGPT
TAF AMD
KGPT 251616Z 2516/2612 22008KT P6SM BKN015
     FM251700 23008KT P6SM SCT035
      TEMPO 2518/2521 VRB15G25KT 1SM -TSRA OVC020CB
     FM252100 20004KT P6SM BKN050
     FM260400 20005KT P6SM SCT005 BKN010
     FM260800 20003KT 5SM BR BKN005=



000
FTUS44 KLIX 251413 AAC
TAFGPT
TAF AMD
KGPT 251413Z 2514/2612 VRB05KT P6SM BKN007 OVC020
     FM251600 23008KT P6SM SCT035
      TEMPO 2517/2519 VRB15G25KT 1SM -TSRA OVC020CB
     FM252000 20004KT P6SM BKN050
     FM260400 20005KT P6SM SCT005 BKN010
     FM260800 20003KT 5SM BR BKN005=



000
FTUS44 KLIX 251412 AAB
TAFMCB
TAF AMD
KMCB 251412Z 2514/2612 18007KT P6SM BKN010
     FM251600 23008KT P6SM SCT030
      TEMPO 2516/2518 VRB10G20KT 1SM -TSRA OVC020CB
     FM252000 20004KT P6SM BKN050
     FM260400 20005KT P6SM SCT005 BKN010
     FM260800 20003KT 2SM BR BKN003=



000
FTUS44 KLIX 251301 AAB
TAFGPT
TAF AMD
KGPT 251301Z 2513/2612 23004KT P6SM BKN006 OVC020
     FM251400 23008KT P6SM SCT035
      TEMPO 2517/2519 VRB15G25KT 1SM -TSRA OVC020CB
     FM252000 20004KT P6SM BKN050
     FM260400 20005KT P6SM SCT005 BKN010
     FM260800 20003KT 5SM BR BKN005=



000
FTUS44 KLIX 251300 AAA
TAFMCB
TAF AMD
KMCB 251300Z 2513/2612 18007KT 5SM BR BKN005 OVC010
     FM251400 23008KT P6SM SCT030
      TEMPO 2516/2518 VRB10G20KT 1SM -TSRA OVC020CB
     FM252000 20004KT P6SM BKN050
     FM260400 20005KT P6SM SCT005 BKN010
     FM260800 20003KT 2SM BR BKN003=



000
FTUS44 KLIX 251217 AAA
TAFGPT
TAF AMD
KGPT 251217Z 2512/2612 23004KT 3SM BR FEW007 BKN020
     FM251400 23008KT P6SM SCT035
      TEMPO 2517/2519 VRB15G25KT 1SM -TSRA OVC020CB
     FM252000 20004KT P6SM BKN050
     FM260400 20005KT P6SM SCT005 BKN010
     FM260800 20003KT 5SM BR BKN005=



000
FTUS44 KLIX 251122
TAFBTR
TAF
KBTR 251122Z 2512/2612 23006KT 6SM BR FEW009
     FM251400 23008KT P6SM SCT035
     FM251600 21007KT P6SM VCTS SCT035CB
      TEMPO 2516/2518 VRB20G30KT 1/2SM TSRA OVC020CB
     FM252000 20004KT P6SM BKN050
     FM260400 20005KT P6SM SCT005 BKN010
     FM260800 20003KT 5SM BR BKN005=



000
FTUS44 KLIX 251122
TAFMSY
TAF
KMSY 251122Z 2512/2612 19008KT P6SM FEW015 BKN250
     FM251400 20008KT P6SM SCT035
     FM251800 21007KT P6SM VCTS SCT035CB
      TEMPO 2518/2520 VRB20G30KT 1/2SM TSRA OVC020CB
     FM252200 20004KT P6SM BKN050
     FM260400 20005KT P6SM SCT005 BKN010
     FM260800 20003KT 5SM BR BKN005=



000
FTUS44 KLIX 251122
TAFBTR
TAF
KBTR 251122Z 2512/2612 23006KT 6SM BR FEW009
     FM251400 23008KT P6SM SCT035
     FM251600 21007KT P6SM VCTS SCT035CB
      TEMPO 2516/2518 VRB20G30KT 1/2SM TSRA OVC020CB
     FM252000 20004KT P6SM BKN050
     FM260400 20005KT P6SM SCT005 BKN010
     FM260800 20003KT 5SM BR BKN005=



000
FTUS44 KLIX 251122
TAFNEW
TAF
KNEW 251122Z 2512/2612 21008KT P6SM SKC
     FM251400 20008KT P6SM SCT035
     FM251800 21007KT P6SM VCTS SCT035CB
      TEMPO 2518/2520 VRB20G30KT 1/2SM TSRA OVC020CB
     FM252200 20004KT P6SM BKN050
     FM260400 20005KT P6SM SCT005 BKN010
     FM260800 20003KT 5SM BR BKN005=



000
FTUS44 KLIX 251122
TAFMCB
TAF
KMCB 251122Z 2512/2612 18007KT 1 1/2SM BR OVC003
     FM251400 23008KT P6SM SCT030
     FM251600 21007KT P6SM VCTS SCT035CB
      TEMPO 2516/2518 VRB10G20KT 1SM -TSRA OVC020CB
     FM252000 20004KT P6SM BKN050
     FM260400 20005KT P6SM SCT005 BKN010
     FM260800 20003KT 2SM BR BKN003=



000
FTUS44 KLIX 251122
TAFNEW
TAF
KNEW 251122Z 2512/2612 21008KT P6SM SKC
     FM251400 20008KT P6SM SCT035
     FM251800 21007KT P6SM VCTS SCT035CB
      TEMPO 2518/2520 VRB20G30KT 1/2SM TSRA OVC020CB
     FM252200 20004KT P6SM BKN050
     FM260400 20005KT P6SM SCT005 BKN010
     FM260800 20003KT 5SM BR BKN005=



000
FTUS44 KLIX 251122
TAFGPT
TAF
KGPT 251122Z 2512/2612 23004KT 6SM BR FEW007 BKN030
     FM251400 23008KT P6SM SCT035
     FM251600 21007KT P6SM VCTS SCT035CB
      TEMPO 2517/2519 VRB15G25KT 1SM -TSRA OVC020CB
     FM252000 20004KT P6SM BKN050
     FM260400 20005KT P6SM SCT005 BKN010
     FM260800 20003KT 5SM BR BKN005=



000
FTUS44 KLIX 251122
TAFMCB
TAF
KMCB 251122Z 2512/2612 18007KT 1 1/2SM BR OVC003
     FM251400 23008KT P6SM SCT030
     FM251600 21007KT P6SM VCTS SCT035CB
      TEMPO 2516/2518 VRB10G20KT 1SM -TSRA OVC020CB
     FM252000 20004KT P6SM BKN050
     FM260400 20005KT P6SM SCT005 BKN010
     FM260800 20003KT 2SM BR BKN003=



000
FTUS44 KLIX 251122
TAFMSY
TAF
KMSY 251122Z 2512/2612 19008KT P6SM FEW015 BKN250
     FM251400 20008KT P6SM SCT035
     FM251800 21007KT P6SM VCTS SCT035CB
      TEMPO 2518/2520 VRB20G30KT 1/2SM TSRA OVC020CB
     FM252200 20004KT P6SM BKN050
     FM260400 20005KT P6SM SCT005 BKN010
     FM260800 20003KT 5SM BR BKN005=



000
FTUS44 KLIX 251122
TAFNEW
TAF
KNEW 251122Z 2512/2612 21008KT P6SM SKC
     FM251400 20008KT P6SM SCT035
     FM251800 21007KT P6SM VCTS SCT035CB
      TEMPO 2518/2520 VRB20G30KT 1/2SM TSRA OVC020CB
     FM252200 20004KT P6SM BKN050
     FM260400 20005KT P6SM SCT005 BKN010
     FM260800 20003KT 5SM BR BKN005=



000
FTUS44 KLIX 251122
TAFGPT
TAF
KGPT 251122Z 2512/2612 23004KT 6SM BR FEW007 BKN030
     FM251400 23008KT P6SM SCT035
     FM251600 21007KT P6SM VCTS SCT035CB
      TEMPO 2517/2519 VRB15G25KT 1SM -TSRA OVC020CB
     FM252000 20004KT P6SM BKN050
     FM260400 20005KT P6SM SCT005 BKN010
     FM260800 20003KT 5SM BR BKN005=



000
FTUS44 KLIX 251122
TAFNEW
TAF
KNEW 251122Z 2512/2612 21008KT P6SM SKC
     FM251400 20008KT P6SM SCT035
     FM251800 21007KT P6SM VCTS SCT035CB
      TEMPO 2518/2520 VRB20G30KT 1/2SM TSRA OVC020CB
     FM252200 20004KT P6SM BKN050
     FM260400 20005KT P6SM SCT005 BKN010
     FM260800 20003KT 5SM BR BKN005=



000
FTUS44 KLIX 250848 AAA
TAFGPT
TAF AMD
KGPT 250848Z 2509/2606 VRB05KT P6SM BKN010
      TEMPO 2509/2512 2SM SHRA
     FM251600 20009KT P6SM VCTS BKN025CB
     FM251900 22009KT P6SM BKN035=



000
FTUS44 KLIX 250848 AAA
TAFGPT
TAF AMD
KGPT 250848Z 2509/2606 VRB05KT P6SM BKN010
      TEMPO 2509/2512 2SM SHRA
     FM251600 20009KT P6SM VCTS BKN025CB
     FM251900 22009KT P6SM BKN035=



000
FTUS44 KLIX 250525
TAFNEW
TAF
KNEW 250525Z 2506/2606 15013KT P6SM BKN013 BKN027
     FM251400 21009KT P6SM VCTS OVC015CB
     FM251700 22009KT P6SM SCT035=



000
FTUS44 KLIX 250525
TAFMCB
TAF
KMCB 250525Z 2506/2606 16007KT P6SM BKN007 OVC022
     FM251500 21008KT P6SM VCTS BKN020CB
     FM251800 22008KT P6SM SCT035=



000
FTUS44 KLIX 250525
TAFGPT
TAF
KGPT 250525Z 2506/2606 17005KT P6SM BKN150
     FM251600 20009KT P6SM VCTS BKN025CB
     FM251900 22009KT P6SM BKN035=



000
FTUS44 KLIX 250525
TAFNEW
TAF
KNEW 250525Z 2506/2606 15013KT P6SM BKN013 BKN027
     FM251400 21009KT P6SM VCTS OVC015CB
     FM251700 22009KT P6SM SCT035=



000
FTUS44 KLIX 250525
TAFMSY
TAF
KMSY 250525Z 2506/2606 15013KT P6SM BKN009 OVC025
     FM251500 21008KT P6SM VCTS SCT008 BKN015CB
     FM251700 21008KT P6SM SCT035=



000
FTUS44 KLIX 250525
TAFBTR
TAF
KBTR 250525Z 2506/2606 17005KT P6SM OVC009
     FM251400 21008KT P6SM VCTS SCT035CB
     FM251700 21007KT P6SM SCT035
     FM260200 20006KT P6SM BKN035=



000
FTUS44 KLIX 250444 AAB
TAFGPT
TAF AMD
KGPT 250444Z 2505/2524 17005KT P6SM OVC150
     FM250700 17010KT P6SM BKN008
     FM251200 21009KT P6SM VCTS SCT008 BKN025CB=



000
FTUS44 KLIX 250443 AAB
TAFNEW
TAF AMD
KNEW 250443Z 2505/2524 15013KT P6SM BKN013 BKN027
      TEMPO 2515/2518 VRB20KT 2SM TSRA BKN035CB=



000
FTUS44 KLIX 250443 AAB
TAFNEW
TAF AMD
KNEW 250443Z 2505/2524 15013KT P6SM BKN013 BKN027
      TEMPO 2515/2518 VRB20KT 2SM TSRA BKN035CB=



000
FTUS44 KLIX 250443 AAB
TAFMSY
TAF AMD
KMSY 250443Z 2505/2524 15013KT P6SM BKN009 OVC025
     FM250600 17009KT P6SM BKN025
     FM251100 21008KT P6SM BKN035
      TEMPO 2518/2521 VRB20KT 2SM TSRA BKN020CB=



000
FTUS44 KLIX 250442 AAB
TAFBTR
TAF AMD
KBTR 250442Z 2505/2524 17005KT P6SM OVC009
     FM251100 21006KT P6SM BKN020
     FM252000 21010KT P6SM VCTS BKN050CB=



000
FTUS44 KLIX 250221 AAA
TAFNEW
TAF AMD
KNEW 250221Z 2502/2524 00000KT P6SM FEW050 BKN060
     FM250500 17005KT P6SM BKN050
      TEMPO 2515/2518 VRB20KT 2SM TSRA BKN035CB=



000
FTUS44 KLIX 250220 AAA
TAFGPT
TAF AMD
KGPT 250220Z 2502/2524 12010KT P6SM BKN008 BKN015 OVC028
     FM250700 17010KT P6SM BKN008
     FM251200 21009KT P6SM VCTS SCT008 BKN025CB=



000
FTUS44 KLIX 250219 AAA
TAFMCB
TAF AMD
KMCB 250219Z 2502/2524 14010KT 6SM BR OVC006
     FM251100 21006KT P6SM BKN003
     FM251430 21008KT P6SM BKN025
     FM251800 21010KT P6SM VCTS BKN050CB=



000
FTUS44 KLIX 250218 AAA
TAFMSY
TAF AMD
KMSY 250218Z 2502/2524 12006KT P6SM FEW015 FEW045 FEW060
     FM250600 17009KT P6SM BKN025
     FM251100 21008KT P6SM BKN035
      TEMPO 2518/2521 VRB20KT 2SM TSRA BKN020CB=



000
FTUS44 KLIX 250217 AAA
TAFBTR
TAF AMD
KBTR 250217Z 2502/2524 11008KT P6SM VCSH SCT021
     FM251100 21006KT P6SM BKN020
     FM252000 21010KT P6SM VCTS BKN050CB=



    US Dept of Commerce
    National Oceanic and Atmospheric Administration
    National Weather Service
    1325 East West Highway
    Silver Spring, MD 20910
    Page Author: NWS Internet Services Team
Disclaimer
Information Quality
Credits
Glossary
Privacy Policy
Freedom of Information Act (FOIA)
About Us
Career Opportunities